Impacts TAF Board INFO
FOR SITUATIONAL AWARENESS. NOT TO BE USED FOR FLIGHT PLANNING PURPOSES.
IDs:

KTPA - Tampa Intl Arpt, FL, US

Issued at 1730 UTC 16 Aug 2018
Updated at 2019 UTC 16 Aug 2018
Potential Impact None Slight Moderate High
Time<<17/09Z 17/10Z 17/11Z 17/12Z 17/13Z 17/14Z 17/15Z 17/16Z 17/17Z 17/18Z 17/19Z 17/20Z 17/21Z>>
Type PRVL PRVL PRVL PRVL PRVL PRVL PRVL PRVL PRVL PRVL PRVL PRVL PRVL
VIS >6 >6 >6 >6 >6 >6 >6 >6 >6 >6 >6 >6 >6
CIG 250 250 250 250 250 -- -- -- -- 60 60 60 60
Cover BKN BKN BKN BKN BKN SCT SCT SCT SCT BKN BKN BKN BKN
FltCat VFR VFR VFR VFR VFR VFR VFR VFR VFR VFR VFR VFR VFR
WX -- -- -- -- -- -- -- -- -- VCTS VCTS VCTS VCTS
WDir VRB VRB VRB VRB VRB 150 150 150 150 230 230 230 230
WSpd 3 3 3 3 3 6 6 6 6 6 6 6 6
WGst -- -- -- -- -- -- -- -- -- -- -- -- --

Raw TAF
KTPA 161730Z 1618/1724 17006KT P6SM VCTS SCT035CB SCT050 BKN250
  FM162000 24007KT P6SM VCTS SCT040CB BKN060 BKN250
  FM170100 VRB03KT P6SM FEW040 SCT120 BKN250
  FM171400 15006KT P6SM SCT025 SCT250
  FM171800 23006KT P6SM VCTS SCT035CB BKN060


METAR Board
Radar Display
Forecast Discussion

FOR SITUATIONAL AWARENESS. NOT TO BE USED FOR FLIGHT PLANNING PURPOSES.